Chiricana — 3EKU3 — position and weather

sailwx.info

Track history (hours):
 
Tides and Currents Weather Stations Pressure Air Temp Water Temp Dewpoint Dewpoint Depression Visibility Wind Speed Wind Dir Waves Ship Positions

Chiricana

Last reported at 2017-Jan-24 03:12 UTC. Time now 2017-Jan-24 19:25 UTC.
Position N 38°37' W 123°52'.

Length 300 m; draft 10.2 m.

Type: Ship (hazmat cat A). MMSI: 372829000.

Date/timePositionNaut miles runAvg speedWind from/ knotsBaromVisibWave heightAir tempDewpointWater temp
2017-Jan-24 03:12N 38°37' W 123°52'1115.9
2017-Jan-24 02:32N 38°30' W 123°42'1717.0
2017-Jan-24 01:33N 38°17' W 123°28'1717.3
2017-Jan-24 00:34N 38°04' W 123°14'1616.0
2017-Jan-23 23:34N 37°54' W 122°58'1514.7
2017-Jan-23 22:33N 37°46' W 122°42'1212.5
2017-Jan-23 21:33N 37°50' W 122°27'6 5.5
2017-Jan-23 20:32N 37°48' W 122°20'0 0.0
2017-Jan-23 19:32N 37°48' W 122°20'0 0.0
2017-Jan-23 18:32N 37°48' W 122°20'0 0.0
2017-Jan-23 17:32N 37°48' W 122°20'0 0.0
2017-Jan-23 16:32N 37°48' W 122°20'0 0.0
2017-Jan-23 15:32N 37°48' W 122°20'0 0.0
2017-Jan-23 14:32N 37°48' W 122°20'0 0.0
2017-Jan-23 13:32N 37°48' W 122°20'0 0.0
2017-Jan-23 12:32N 37°48' W 122°20'0 0.0
2017-Jan-23 11:32N 37°48' W 122°20'0 0.0
2017-Jan-23 10:32N 37°48' W 122°20'0 0.0
2017-Jan-23 09:32N 37°48' W 122°20'0 0.0
2017-Jan-23 08:32N 37°48' W 122°20'0 0.0
2017-Jan-23 07:32N 37°48' W 122°20'0 0.0
2017-Jan-23 06:32N 37°48' W 122°20'0 0.0
2017-Jan-23 05:32N 37°48' W 122°20'0 0.0
2017-Jan-23 04:32N 37°48' W 122°20'0 0.0
2017-Jan-23 03:32N 37°48' W 122°20'0 0.0
2017-Jan-23 02:32N 37°48' W 122°20'0 0.0
2017-Jan-23 01:32N 37°48' W 122°20'0 0.2
2017-Jan-23 00:33N 37°49' W 122°20'5 5.4
2017-Jan-22 23:33N 37°49' W 122°27'1212.1
2017-Jan-22 22:33N 37°45' W 122°41'4 4.5
2017-Jan-22 21:33N 37°40' W 122°40'8 7.9
2017-Jan-22 20:33N 37°32' W 122°40'1212.1
2017-Jan-22 19:33N 37°20' W 122°40'1312.4
2017-Jan-22 18:32N 37°08' W 122°37'1312.3
2017-Jan-22 17:28N 36°55' W 122°34'1112.4
2017-Jan-22 16:33N 36°44' W 122°31'1212.3
2017-Jan-22 15:33N 36°32' W 122°28'1312.5
2017-Jan-22 14:33N 36°19' W 122°25'1413.6
2017-Jan-22 13:33N 36°06' W 122°20'1212.3
2017-Jan-22 12:33N 35°57' W 122°11'1312.7
2017-Jan-22 11:33N 35°46' W 122°02'1313.2
2017-Jan-22 10:33N 35°36' W 121°52'1713.9
2017-Jan-22 09:20N 35°22' W 121°40'19913.5
2017-Jan-21 18:33N 33°40' W 118°13'2 0.4
2017-Jan-21 13:22N 33°42' W 118°12'  
2017-Jan-18 19:30N 33°45' W 118°16'0 0.0
2017-Jan-18 13:14N 33°45' W 118°16'0 0.1
2017-Jan-18 12:33N 33°45' W 118°16'7 7.4
2017-Jan-18 11:32N 33°38' W 118°13'8 8.3
2017-Jan-18 10:33N 33°36' W 118°22'1010.4
2017-Jan-18 09:33N 33°36' W 118°35'1111.3
2017-Jan-18 08:33N 33°37' W 118°48'1111.4
2017-Jan-18 07:33N 33°38' W 119°02'1211.7
2017-Jan-18 06:33N 33°39' W 119°16'3315.3
2017-Jan-18 04:22N 33°37' W 119°56'1315.3
2017-Jan-18 03:33N 33°37' W 120°11'7414.7
2017-Jan-17 22:30N 33°38' W 121°41'8614.4
2017-Jan-17 16:30N 33°39' W 123°24'4413.9
2017-Jan-17 13:21N 33°40' W 124°17'1714.6
2017-Jan-17 12:11N 33°41' W 124°37'1917.3
2017-Jan-17 11:05N 33°50' W 124°58'917.4
2017-Jan-17 10:33N 33°54' W 125°08'1717.3
2017-Jan-17 09:34N 34°02' W 125°26'1717.4
2017-Jan-17 08:34N 34°10' W 125°45'2017.6
2017-Jan-17 07:24N 34°19' W 126°07'1517.9
2017-Jan-17 06:34N 34°25' W 126°23'1917.5
2017-Jan-17 05:28N 34°34' W 126°44'1717.7
2017-Jan-17 04:31N 34°41' W 127°03'1717.9
2017-Jan-17 03:33N 34°49' W 127°21'1817.8
2017-Jan-17 02:33N 34°56' W 127°41'1817.5
2017-Jan-17 01:32N 35°04' W 128°01'  
Track history (hours):
 
Tides and Currents Weather Stations Pressure Air Temp Water Temp Dewpoint Dewpoint Depression Visibility Wind Speed Wind Dir Waves Ship Positions

Chiricana

Last reported at 2017-Jan-24 03:12 UTC. Time now 2017-Jan-24 19:25 UTC.
Position N 38°37' W 123°52'.

Length 300 m; draft 10.2 m.

Type: Ship (hazmat cat A). MMSI: 372829000.

Date/timePositionNaut miles runAvg speedWind from/ knotsBaromVisibWave heightAir tempDewpointWater temp
2017-Jan-24 03:12N 38°37' W 123°52'1115.9
2017-Jan-24 02:32N 38°30' W 123°42'1717.0
2017-Jan-24 01:33N 38°17' W 123°28'1717.3
2017-Jan-24 00:34N 38°04' W 123°14'1616.0
2017-Jan-23 23:34N 37°54' W 122°58'1514.7
2017-Jan-23 22:33N 37°46' W 122°42'1212.5
2017-Jan-23 21:33N 37°50' W 122°27'6 5.5
2017-Jan-23 20:32N 37°48' W 122°20'0 0.0
2017-Jan-23 19:32N 37°48' W 122°20'0 0.0
2017-Jan-23 18:32N 37°48' W 122°20'0 0.0
2017-Jan-23 17:32N 37°48' W 122°20'0 0.0
2017-Jan-23 16:32N 37°48' W 122°20'0 0.0
2017-Jan-23 15:32N 37°48' W 122°20'0 0.0
2017-Jan-23 14:32N 37°48' W 122°20'0 0.0
2017-Jan-23 13:32N 37°48' W 122°20'0 0.0
2017-Jan-23 12:32N 37°48' W 122°20'0 0.0
2017-Jan-23 11:32N 37°48' W 122°20'0 0.0
2017-Jan-23 10:32N 37°48' W 122°20'0 0.0
2017-Jan-23 09:32N 37°48' W 122°20'0 0.0
2017-Jan-23 08:32N 37°48' W 122°20'0 0.0
2017-Jan-23 07:32N 37°48' W 122°20'0 0.0
2017-Jan-23 06:32N 37°48' W 122°20'0 0.0
2017-Jan-23 05:32N 37°48' W 122°20'0 0.0
2017-Jan-23 04:32N 37°48' W 122°20'0 0.0
2017-Jan-23 03:32N 37°48' W 122°20'0 0.0
2017-Jan-23 02:32N 37°48' W 122°20'0 0.0
2017-Jan-23 01:32N 37°48' W 122°20'0 0.2
2017-Jan-23 00:33N 37°49' W 122°20'5 5.4
2017-Jan-22 23:33N 37°49' W 122°27'1212.1
2017-Jan-22 22:33N 37°45' W 122°41'4 4.5
2017-Jan-22 21:33N 37°40' W 122°40'8 7.9
2017-Jan-22 20:33N 37°32' W 122°40'1212.1
2017-Jan-22 19:33N 37°20' W 122°40'1312.4
2017-Jan-22 18:32N 37°08' W 122°37'1312.3
2017-Jan-22 17:28N 36°55' W 122°34'1112.4
2017-Jan-22 16:33N 36°44' W 122°31'1212.3
2017-Jan-22 15:33N 36°32' W 122°28'1312.5
2017-Jan-22 14:33N 36°19' W 122°25'1413.6
2017-Jan-22 13:33N 36°06' W 122°20'1212.3
2017-Jan-22 12:33N 35°57' W 122°11'1312.7
2017-Jan-22 11:33N 35°46' W 122°02'1313.2
2017-Jan-22 10:33N 35°36' W 121°52'1713.9
2017-Jan-22 09:20N 35°22' W 121°40'19913.5
2017-Jan-21 18:33N 33°40' W 118°13'2 0.4
2017-Jan-21 13:22N 33°42' W 118°12'  
2017-Jan-18 19:30N 33°45' W 118°16'0 0.0
2017-Jan-18 13:14N 33°45' W 118°16'0 0.1
2017-Jan-18 12:33N 33°45' W 118°16'7 7.4
2017-Jan-18 11:32N 33°38' W 118°13'8 8.3
2017-Jan-18 10:33N 33°36' W 118°22'1010.4
2017-Jan-18 09:33N 33°36' W 118°35'1111.3
2017-Jan-18 08:33N 33°37' W 118°48'1111.4
2017-Jan-18 07:33N 33°38' W 119°02'1211.7
2017-Jan-18 06:33N 33°39' W 119°16'3315.3
2017-Jan-18 04:22N 33°37' W 119°56'1315.3
2017-Jan-18 03:33N 33°37' W 120°11'7414.7
2017-Jan-17 22:30N 33°38' W 121°41'8614.4
2017-Jan-17 16:30N 33°39' W 123°24'4413.9
2017-Jan-17 13:21N 33°40' W 124°17'1714.6
2017-Jan-17 12:11N 33°41' W 124°37'1917.3
2017-Jan-17 11:05N 33°50' W 124°58'917.4
2017-Jan-17 10:33N 33°54' W 125°08'1717.3
2017-Jan-17 09:34N 34°02' W 125°26'1717.4
2017-Jan-17 08:34N 34°10' W 125°45'2017.6
2017-Jan-17 07:24N 34°19' W 126°07'1517.9
2017-Jan-17 06:34N 34°25' W 126°23'1917.5
2017-Jan-17 05:28N 34°34' W 126°44'1717.7
2017-Jan-17 04:31N 34°41' W 127°03'1717.9
2017-Jan-17 03:33N 34°49' W 127°21'1817.8
2017-Jan-17 02:33N 34°56' W 127°41'1817.5
2017-Jan-17 01:32N 35°04' W 128°01'  

Dump ship's entire track history